createdAt,value
2022-08-25T00:00:17.070Z,29.849
2022-08-25T00:05:17.232Z,29.851
2022-08-25T00:10:16.827Z,29.852
2022-08-25T00:15:17.329Z,29.851
2022-08-25T00:20:16.685Z,29.853
2022-08-25T00:25:17.108Z,29.854
2022-08-25T00:30:17.036Z,29.853
2022-08-25T00:35:16.833Z,29.853
2022-08-25T00:40:16.935Z,29.854
2022-08-25T00:45:17.157Z,29.854
2022-08-25T00:50:16.780Z,29.855
2022-08-25T00:55:16.905Z,29.857
2022-08-25T01:00:18.217Z,29.858
2022-08-25T01:05:16.977Z,29.860
2022-08-25T01:10:16.851Z,29.860
2022-08-25T01:15:16.875Z,29.861
2022-08-25T01:20:19.693Z,29.858
2022-08-25T01:25:17.137Z,29.859
2022-08-25T01:30:17.101Z,29.859
2022-08-25T01:35:17.167Z,29.858
2022-08-25T01:40:17.029Z,29.859
2022-08-25T01:45:17.255Z,29.860
2022-08-25T01:50:17.026Z,29.859
2022-08-25T01:55:17.380Z,29.861
2022-08-25T02:00:16.963Z,29.860
2022-08-25T02:05:20.308Z,29.860
2022-08-25T02:10:17.143Z,29.862
2022-08-25T02:15:17.155Z,29.864
2022-08-25T02:20:17.165Z,29.864
2022-08-25T02:25:17.065Z,29.865
2022-08-25T02:30:17.044Z,29.865
2022-08-25T02:35:17.213Z,29.865
2022-08-25T02:40:17.144Z,29.865
2022-08-25T02:45:17.345Z,29.867
2022-08-25T02:50:17.071Z,29.868
2022-08-25T02:55:17.135Z,29.868
2022-08-25T03:00:17.435Z,29.868
2022-08-25T03:05:17.443Z,29.868
2022-08-25T03:10:17.134Z,29.869
2022-08-25T03:15:17.211Z,29.868
2022-08-25T03:20:17.443Z,29.870
2022-08-25T03:25:20.983Z,29.868
2022-08-25T03:30:17.250Z,29.870
2022-08-25T03:35:17.279Z,29.869
2022-08-25T03:40:17.361Z,29.870
2022-08-25T03:45:17.430Z,29.870
2022-08-25T03:50:17.209Z,29.872
2022-08-25T03:55:17.377Z,29.872
2022-08-25T04:00:16.270Z,29.873
2022-08-25T04:05:16.571Z,29.874
2022-08-25T04:10:16.228Z,29.874
2022-08-25T04:15:16.642Z,29.876
2022-08-25T04:20:16.221Z,29.877
2022-08-25T04:25:16.385Z,29.878
2022-08-25T04:30:16.451Z,29.882
2022-08-25T04:35:16.334Z,29.883
2022-08-25T04:40:16.560Z,29.883
2022-08-25T04:45:16.452Z,29.884
2022-08-25T04:50:16.294Z,29.884
2022-08-25T04:55:16.424Z,29.886
2022-08-25T05:00:16.345Z,29.884
2022-08-25T05:05:16.515Z,29.885
2022-08-25T05:10:16.344Z,29.885
2022-08-25T05:15:16.491Z,29.886
2022-08-25T05:20:16.345Z,29.886
2022-08-25T05:25:16.752Z,29.884
2022-08-25T05:30:16.573Z,29.881
2022-08-25T05:35:16.535Z,29.883
2022-08-25T05:40:17.304Z,29.882
2022-08-25T05:45:20.365Z,29.882
2022-08-25T05:50:16.421Z,29.882
2022-08-25T05:55:17.172Z,29.882
2022-08-25T06:00:16.550Z,29.881
2022-08-25T06:05:16.601Z,29.880
2022-08-25T06:10:16.420Z,29.881
2022-08-25T06:15:16.717Z,29.880
2022-08-25T06:20:16.518Z,29.881
2022-08-25T06:25:16.697Z,29.883
2022-08-25T06:30:16.602Z,29.881
2022-08-25T06:35:16.840Z,29.883
2022-08-25T06:40:16.679Z,29.882
2022-08-25T06:45:16.826Z,29.882
2022-08-25T06:50:17.305Z,29.882
2022-08-25T06:55:16.564Z,29.881
2022-08-25T07:00:16.602Z,29.881
2022-08-25T07:05:26.915Z,29.881
2022-08-25T07:10:16.746Z,29.881
2022-08-25T07:15:20.362Z,29.884
2022-08-25T07:20:16.785Z,29.883
2022-08-25T07:25:17.809Z,29.882
2022-08-25T07:30:16.670Z,29.881
2022-08-25T07:35:19.112Z,29.883
2022-08-25T07:40:18.382Z,29.882
2022-08-25T07:45:17.420Z,29.879
2022-08-25T07:50:16.611Z,29.879
2022-08-25T07:55:18.143Z,29.879
2022-08-25T08:00:17.074Z,29.878
2022-08-25T08:05:16.763Z,29.880
2022-08-25T08:11:07.600Z,29.880
2022-08-25T08:15:16.871Z,29.878
2022-08-25T08:20:16.759Z,29.878
2022-08-25T08:25:21.191Z,29.877
2022-08-25T08:30:16.994Z,29.877
2022-08-25T08:35:16.864Z,29.874
2022-08-25T08:40:16.848Z,29.874
2022-08-25T08:45:16.836Z,29.873
2022-08-25T08:50:22.449Z,29.874
2022-08-25T08:55:16.972Z,29.875
2022-08-25T09:00:16.961Z,29.876
2022-08-25T09:05:17.018Z,29.875
2022-08-25T09:10:17.064Z,29.876
2022-08-25T09:15:17.194Z,29.875
2022-08-25T09:20:18.431Z,29.878
2022-08-25T09:25:21.960Z,29.878
2022-08-25T09:30:16.955Z,29.877
2022-08-25T09:35:16.921Z,29.878
2022-08-25T09:40:17.200Z,29.876
2022-08-25T09:45:16.968Z,29.877
2022-08-25T09:50:18.576Z,29.880
2022-08-25T09:55:17.731Z,29.882
2022-08-25T10:00:16.975Z,29.882
2022-08-25T10:05:17.212Z,29.883
2022-08-25T10:10:16.952Z,29.885
2022-08-25T10:15:29.136Z,29.888
2022-08-25T10:20:16.963Z,29.891
2022-08-25T10:25:17.187Z,29.893
2022-08-25T10:30:17.179Z,29.894
2022-08-25T10:35:17.147Z,29.898
2022-08-25T10:40:17.071Z,29.901
2022-08-25T10:45:21.724Z,29.905
2022-08-25T10:50:17.260Z,29.905
2022-08-25T10:55:17.108Z,29.905
2022-08-25T11:00:17.137Z,29.904
2022-08-25T11:05:17.063Z,29.903
2022-08-25T11:10:17.041Z,29.905
2022-08-25T11:15:17.373Z,29.905
2022-08-25T11:20:20.532Z,29.907
2022-08-25T11:25:18.372Z,29.910
2022-08-25T11:30:17.134Z,29.911
2022-08-25T11:35:17.185Z,29.912
2022-08-25T11:40:17.368Z,29.912
2022-08-25T11:45:17.544Z,29.914
2022-08-25T11:50:17.274Z,29.916
2022-08-25T11:55:22.971Z,29.916
2022-08-25T12:00:17.510Z,29.913
2022-08-25T12:05:17.542Z,29.914
2022-08-25T12:10:17.207Z,29.915
2022-08-25T12:15:17.308Z,29.917
2022-08-25T12:20:17.177Z,29.916
2022-08-25T12:25:17.692Z,29.918
2022-08-25T12:30:18.462Z,29.916
2022-08-25T12:35:17.453Z,29.917
2022-08-25T12:40:17.401Z,29.915
2022-08-25T12:45:17.534Z,29.919
2022-08-25T12:50:17.168Z,29.921
2022-08-25T12:55:17.476Z,29.919
2022-08-25T13:00:18.446Z,29.916
2022-08-25T13:05:17.708Z,29.916
2022-08-25T13:10:17.343Z,29.917
2022-08-25T13:15:17.486Z,29.919
2022-08-25T13:20:17.532Z,29.919
2022-08-25T13:25:17.772Z,29.919
2022-08-25T13:30:17.359Z,29.920
2022-08-25T13:35:19.955Z,29.921
2022-08-25T13:40:17.709Z,29.923
2022-08-25T13:45:17.532Z,29.927
2022-08-25T13:50:17.361Z,29.927
2022-08-25T13:55:17.480Z,29.928
2022-08-25T14:00:17.506Z,29.925
2022-08-25T14:05:17.492Z,29.928
2022-08-25T14:10:17.297Z,29.930
2022-08-25T14:15:18.059Z,29.932
2022-08-25T14:20:17.491Z,29.932
2022-08-25T14:25:17.511Z,29.934
2022-08-25T14:30:17.574Z,29.936
2022-08-25T14:35:17.681Z,29.938
2022-08-25T14:40:17.560Z,29.938
2022-08-25T14:45:20.815Z,29.939
2022-08-25T14:50:17.543Z,29.939
2022-08-25T14:55:31.354Z,29.938
2022-08-25T15:00:17.533Z,29.937
2022-08-25T15:05:17.778Z,29.939
2022-08-25T15:10:17.762Z,29.939
2022-08-25T15:15:18.059Z,29.940
2022-08-25T15:20:17.611Z,29.940
2022-08-25T15:25:17.862Z,29.939
2022-08-25T15:30:18.474Z,29.938
2022-08-25T15:35:17.680Z,29.939
2022-08-25T15:40:17.649Z,29.939
2022-08-25T15:45:17.840Z,29.940
2022-08-25T15:50:17.605Z,29.939
2022-08-25T15:55:19.837Z,29.937
2022-08-25T16:00:17.704Z,29.936
2022-08-25T16:05:18.422Z,29.936
2022-08-25T16:10:17.632Z,29.936
2022-08-25T16:15:17.772Z,29.935
2022-08-25T16:20:17.837Z,29.934
2022-08-25T16:25:19.271Z,29.934
2022-08-25T16:30:17.941Z,29.935
2022-08-25T16:35:18.418Z,29.934
2022-08-25T16:40:17.844Z,29.933
2022-08-25T16:45:18.073Z,29.934
2022-08-25T16:50:17.801Z,29.936
2022-08-25T16:55:18.053Z,29.936
2022-08-25T17:00:17.914Z,29.936
2022-08-25T17:05:18.344Z,29.936
2022-08-25T17:10:17.789Z,29.938
2022-08-25T17:15:17.957Z,29.940
2022-08-25T17:20:17.850Z,29.941
2022-08-25T17:25:17.843Z,29.940
2022-08-25T17:30:17.816Z,29.939
2022-08-25T17:35:17.946Z,29.939
2022-08-25T17:40:17.998Z,29.940
2022-08-25T17:45:18.035Z,29.939
2022-08-25T17:50:17.914Z,29.939
2022-08-25T17:55:17.933Z,29.938
2022-08-25T18:00:17.987Z,29.937
2022-08-25T18:05:18.249Z,29.936
2022-08-25T18:10:17.982Z,29.934
2022-08-25T18:15:18.288Z,29.933
2022-08-25T18:20:17.969Z,29.933
2022-08-25T18:25:18.131Z,29.932
2022-08-25T18:30:16.492Z,29.927
2022-08-25T18:35:21.398Z,29.926
2022-08-25T18:40:18.118Z,29.926
2022-08-25T18:45:18.367Z,29.924
2022-08-25T18:50:18.020Z,29.922
2022-08-25T18:55:18.042Z,29.923
2022-08-25T19:00:17.967Z,29.923
2022-08-25T19:05:18.078Z,29.921
2022-08-25T19:10:18.060Z,29.920
2022-08-25T19:15:18.582Z,29.918
2022-08-25T19:20:18.265Z,29.916
2022-08-25T19:25:18.539Z,29.914
2022-08-25T19:30:18.318Z,29.914
2022-08-25T19:35:18.149Z,29.913
2022-08-25T19:40:18.254Z,29.914
2022-08-25T19:45:18.203Z,29.913
2022-08-25T19:50:18.093Z,29.913
2022-08-25T19:55:19.820Z,29.911
2022-08-25T20:00:16.309Z,29.911
2022-08-25T20:05:16.170Z,29.909
2022-08-25T20:10:16.143Z,29.909
2022-08-25T20:15:16.828Z,29.910
2022-08-25T20:20:16.215Z,29.908
2022-08-25T20:25:16.425Z,29.909
2022-08-25T20:30:16.800Z,29.909
2022-08-25T20:35:16.498Z,29.909
2022-08-25T20:40:16.852Z,29.911
2022-08-25T20:45:16.373Z,29.910
2022-08-25T20:50:16.198Z,29.909
2022-08-25T20:55:18.961Z,29.911
2022-08-25T21:00:16.554Z,29.911
2022-08-25T21:05:16.478Z,29.909
2022-08-25T21:10:16.313Z,29.907
2022-08-25T21:15:18.159Z,29.906
2022-08-25T21:20:16.274Z,29.907
2022-08-25T21:25:16.347Z,29.905
2022-08-25T21:30:16.257Z,29.902
2022-08-25T21:35:16.663Z,29.902
2022-08-25T21:40:16.560Z,29.901
2022-08-25T21:45:16.835Z,29.901
2022-08-25T21:50:16.344Z,29.905
2022-08-25T21:55:17.418Z,29.903
2022-08-25T22:00:16.487Z,29.904
2022-08-25T22:05:16.573Z,29.904
2022-08-25T22:10:17.964Z,29.902
2022-08-25T22:15:16.754Z,29.902
2022-08-25T22:20:16.437Z,29.902
2022-08-25T22:25:16.479Z,29.901
2022-08-25T22:30:16.491Z,29.900
2022-08-25T22:35:16.768Z,29.899
2022-08-25T22:40:16.467Z,29.898
2022-08-25T22:45:16.828Z,29.898
2022-08-25T22:50:17.326Z,29.899
2022-08-25T22:55:16.683Z,29.899
2022-08-25T23:00:16.683Z,29.898
2022-08-25T23:05:16.657Z,29.898
2022-08-25T23:10:16.525Z,29.898
2022-08-25T23:15:16.691Z,29.901
2022-08-25T23:20:16.454Z,29.900
2022-08-25T23:25:16.792Z,29.899
2022-08-25T23:30:16.653Z,29.902
2022-08-25T23:35:16.601Z,29.902
2022-08-25T23:40:19.335Z,29.904
2022-08-25T23:45:16.607Z,29.903
2022-08-25T23:50:16.608Z,29.904
2022-08-25T23:55:17.504Z,29.905
